sensor_id;sensor_type;location;lat;lon;timestamp;P1;durP1;ratioP1;P2;durP2;ratioP2
37847;SDS011;23688;33.130;-117.188;2023-04-01T00:01:01;3.72;;;1.23;;
37847;SDS011;23688;33.130;-117.188;2023-04-01T00:03:30;7.60;;;1.30;;
37847;SDS011;23688;33.130;-117.188;2023-04-01T00:06:00;5.30;;;1.23;;
37847;SDS011;23688;33.130;-117.188;2023-04-01T00:08:27;7.15;;;1.85;;
37847;SDS011;23688;33.130;-117.188;2023-04-01T00:10:55;4.85;;;1.30;;
37847;SDS011;23688;33.130;-117.188;2023-04-01T00:13:24;2.85;;;1.23;;
37847;SDS011;23688;33.130;-117.188;2023-04-01T00:15:52;9.48;;;1.60;;
37847;SDS011;23688;33.130;-117.188;2023-04-01T00:18:20;5.78;;;1.33;;
37847;SDS011;23688;33.130;-117.188;2023-04-01T00:20:47;3.63;;;1.45;;
37847;SDS011;23688;33.130;-117.188;2023-04-01T00:23:15;9.50;;;2.05;;
37847;SDS011;23688;33.130;-117.188;2023-04-01T00:25:43;4.38;;;1.60;;
37847;SDS011;23688;33.130;-117.188;2023-04-01T00:28:14;10.05;;;1.85;;
37847;SDS011;23688;33.130;-117.188;2023-04-01T00:30:44;9.45;;;1.92;;
37847;SDS011;23688;33.130;-117.188;2023-04-01T00:33:12;10.30;;;1.50;;
37847;SDS011;23688;33.130;-117.188;2023-04-01T00:35:38;7.15;;;1.52;;
37847;SDS011;23688;33.130;-117.188;2023-04-01T00:38:05;6.18;;;1.30;;
37847;SDS011;23688;33.130;-117.188;2023-04-01T00:40:37;5.25;;;1.50;;
37847;SDS011;23688;33.130;-117.188;2023-04-01T00:43:11;7.70;;;2.67;;
37847;SDS011;23688;33.130;-117.188;2023-04-01T00:45:45;6.93;;;1.83;;
37847;SDS011;23688;33.130;-117.188;2023-04-01T00:50:50;12.00;;;2.72;;
37847;SDS011;23688;33.130;-117.188;2023-04-01T00:53:41;12.43;;;3.15;;
37847;SDS011;23688;33.130;-117.188;2023-04-01T00:56:14;7.88;;;2.58;;
37847;SDS011;23688;33.130;-117.188;2023-04-01T00:58:47;4.72;;;1.95;;
37847;SDS011;23688;33.130;-117.188;2023-04-01T01:01:36;10.98;;;2.70;;
37847;SDS011;23688;33.130;-117.188;2023-04-01T01:04:03;6.90;;;1.95;;
37847;SDS011;23688;33.130;-117.188;2023-04-01T01:09:18;7.10;;;2.03;;
37847;SDS011;23688;33.130;-117.188;2023-04-01T01:14:53;9.27;;;2.10;;
37847;SDS011;23688;33.130;-117.188;2023-04-01T01:17:31;10.68;;;1.88;;
37847;SDS011;23688;33.130;-117.188;2023-04-01T01:20:14;15.05;;;1.75;;
37847;SDS011;23688;33.130;-117.188;2023-04-01T01:37:22;7.07;;;1.48;;
37847;SDS011;23688;33.130;-117.188;2023-04-01T01:39:56;2.97;;;1.33;;
37847;SDS011;23688;33.130;-117.188;2023-04-01T01:42:27;6.35;;;1.35;;
37847;SDS011;23688;33.130;-117.188;2023-04-01T01:44:56;7.82;;;1.58;;
37847;SDS011;23688;33.130;-117.188;2023-04-01T01:47:25;3.72;;;1.48;;
37847;SDS011;23688;33.130;-117.188;2023-04-01T01:49:53;5.30;;;1.55;;
37847;SDS011;23688;33.130;-117.188;2023-04-01T01:52:26;6.20;;;1.85;;
37847;SDS011;23688;33.130;-117.188;2023-04-01T01:54:55;3.45;;;1.40;;
37847;SDS011;23688;33.130;-117.188;2023-04-01T01:57:26;3.75;;;1.33;;
37847;SDS011;23688;33.130;-117.188;2023-04-01T01:59:58;9.30;;;1.67;;
37847;SDS011;23688;33.130;-117.188;2023-04-01T02:02:42;9.23;;;2.03;;
37847;SDS011;23688;33.130;-117.188;2023-04-01T02:05:16;16.50;;;2.30;;
37847;SDS011;23688;33.130;-117.188;2023-04-01T02:07:46;7.50;;;2.00;;
37847;SDS011;23688;33.130;-117.188;2023-04-01T02:10:25;10.18;;;2.00;;
37847;SDS011;23688;33.130;-117.188;2023-04-01T02:12:53;6.40;;;1.80;;
37847;SDS011;23688;33.130;-117.188;2023-04-01T02:15:25;10.07;;;2.30;;
37847;SDS011;23688;33.130;-117.188;2023-04-01T02:17:55;7.22;;;1.60;;
37847;SDS011;23688;33.130;-117.188;2023-04-01T02:20:23;11.00;;;2.00;;
37847;SDS011;23688;33.130;-117.188;2023-04-01T02:22:51;6.65;;;2.05;;
37847;SDS011;23688;33.130;-117.188;2023-04-01T02:25:30;11.35;;;1.80;;
37847;SDS011;23688;33.130;-117.188;2023-04-01T02:28:01;6.30;;;1.73;;
37847;SDS011;23688;33.130;-117.188;2023-04-01T02:30:31;8.10;;;1.50;;
37847;SDS011;23688;33.130;-117.188;2023-04-01T02:33:00;6.38;;;1.40;;
37847;SDS011;23688;33.130;-117.188;2023-04-01T02:35:27;9.88;;;1.77;;
37847;SDS011;23688;33.130;-117.188;2023-04-01T02:37:54;13.85;;;1.90;;
37847;SDS011;23688;33.130;-117.188;2023-04-01T02:40:21;6.70;;;1.50;;
37847;SDS011;23688;33.130;-117.188;2023-04-01T02:42:48;5.43;;;2.22;;
37847;SDS011;23688;33.130;-117.188;2023-04-01T02:45:14;6.72;;;1.98;;
37847;SDS011;23688;33.130;-117.188;2023-04-01T02:47:41;5.97;;;1.58;;
37847;SDS011;23688;33.130;-117.188;2023-04-01T02:50:08;7.95;;;1.50;;
37847;SDS011;23688;33.130;-117.188;2023-04-01T02:52:35;6.97;;;2.22;;
37847;SDS011;23688;33.130;-117.188;2023-04-01T02:55:02;6.75;;;1.10;;
37847;SDS011;23688;33.130;-117.188;2023-04-01T02:57:31;8.65;;;1.77;;
37847;SDS011;23688;33.130;-117.188;2023-04-01T02:59:58;8.10;;;1.88;;
37847;SDS011;23688;33.130;-117.188;2023-04-01T03:02:25;7.72;;;1.55;;
37847;SDS011;23688;33.130;-117.188;2023-04-01T03:04:52;11.60;;;2.25;;
37847;SDS011;23688;33.130;-117.188;2023-04-01T03:07:18;8.40;;;2.20;;
37847;SDS011;23688;33.130;-117.188;2023-04-01T03:09:44;8.15;;;1.95;;
37847;SDS011;23688;33.130;-117.188;2023-04-01T03:12:11;6.75;;;1.77;;
37847;SDS011;23688;33.130;-117.188;2023-04-01T03:14:38;7.85;;;1.98;;
37847;SDS011;23688;33.130;-117.188;2023-04-01T03:17:04;12.95;;;2.30;;
37847;SDS011;23688;33.130;-117.188;2023-04-01T03:19:32;8.13;;;1.85;;
37847;SDS011;23688;33.130;-117.188;2023-04-01T03:21:58;5.57;;;1.65;;
37847;SDS011;23688;33.130;-117.188;2023-04-01T03:24:25;3.97;;;1.33;;
37847;SDS011;23688;33.130;-117.188;2023-04-01T03:26:52;7.72;;;2.10;;
37847;SDS011;23688;33.130;-117.188;2023-04-01T03:29:18;7.60;;;2.05;;
37847;SDS011;23688;33.130;-117.188;2023-04-01T03:31:45;6.68;;;1.70;;
37847;SDS011;23688;33.130;-117.188;2023-04-01T03:34:11;9.07;;;2.45;;
37847;SDS011;23688;33.130;-117.188;2023-04-01T03:36:37;8.70;;;1.85;;
37847;SDS011;23688;33.130;-117.188;2023-04-01T03:39:04;9.82;;;1.75;;
37847;SDS011;23688;33.130;-117.188;2023-04-01T03:41:31;5.85;;;1.55;;
37847;SDS011;23688;33.130;-117.188;2023-04-01T03:43:58;4.60;;;1.67;;
37847;SDS011;23688;33.130;-117.188;2023-04-01T03:46:27;10.88;;;1.92;;
37847;SDS011;23688;33.130;-117.188;2023-04-01T03:48:53;8.40;;;1.73;;
37847;SDS011;23688;33.130;-117.188;2023-04-01T03:51:19;6.40;;;1.67;;
37847;SDS011;23688;33.130;-117.188;2023-04-01T03:53:46;13.93;;;2.38;;
37847;SDS011;23688;33.130;-117.188;2023-04-01T03:56:12;13.70;;;2.05;;
37847;SDS011;23688;33.130;-117.188;2023-04-01T03:58:38;6.47;;;2.08;;
37847;SDS011;23688;33.130;-117.188;2023-04-01T04:01:38;6.13;;;1.60;;
37847;SDS011;23688;33.130;-117.188;2023-04-01T04:03:57;7.63;;;1.70;;
37847;SDS011;23688;33.130;-117.188;2023-04-01T04:06:26;8.02;;;1.70;;
37847;SDS011;23688;33.130;-117.188;2023-04-01T04:08:53;6.78;;;1.48;;
37847;SDS011;23688;33.130;-117.188;2023-04-01T04:11:20;5.57;;;1.50;;
37847;SDS011;23688;33.130;-117.188;2023-04-01T04:13:47;10.82;;;2.08;;
37847;SDS011;23688;33.130;-117.188;2023-04-01T04:16:16;8.38;;;1.42;;
37847;SDS011;23688;33.130;-117.188;2023-04-01T04:18:43;9.00;;;1.80;;
37847;SDS011;23688;33.130;-117.188;2023-04-01T04:21:13;9.55;;;1.13;;
37847;SDS011;23688;33.130;-117.188;2023-04-01T04:23:41;15.63;;;2.15;;
37847;SDS011;23688;33.130;-117.188;2023-04-01T04:26:09;8.80;;;2.55;;
37847;SDS011;23688;33.130;-117.188;2023-04-01T04:28:37;10.32;;;2.05;;
37847;SDS011;23688;33.130;-117.188;2023-04-01T04:31:04;9.23;;;2.40;;
37847;SDS011;23688;33.130;-117.188;2023-04-01T04:33:32;7.30;;;2.40;;
37847;SDS011;23688;33.130;-117.188;2023-04-01T04:35:59;12.48;;;3.10;;
37847;SDS011;23688;33.130;-117.188;2023-04-01T04:38:26;8.32;;;3.08;;
37847;SDS011;23688;33.130;-117.188;2023-04-01T04:40:53;9.23;;;2.92;;
37847;SDS011;23688;33.130;-117.188;2023-04-01T04:43:19;14.95;;;2.33;;
37847;SDS011;23688;33.130;-117.188;2023-04-01T04:45:47;4.95;;;1.95;;
37847;SDS011;23688;33.130;-117.188;2023-04-01T04:48:15;4.85;;;2.42;;
37847;SDS011;23688;33.130;-117.188;2023-04-01T04:50:47;11.95;;;2.67;;
37847;SDS011;23688;33.130;-117.188;2023-04-01T04:53:15;10.13;;;2.80;;
37847;SDS011;23688;33.130;-117.188;2023-04-01T04:55:44;17.52;;;3.60;;
37847;SDS011;23688;33.130;-117.188;2023-04-01T04:58:14;7.75;;;2.75;;
37847;SDS011;23688;33.130;-117.188;2023-04-01T05:00:42;6.88;;;3.30;;
37847;SDS011;23688;33.130;-117.188;2023-04-01T05:03:09;7.72;;;2.85;;
37847;SDS011;23688;33.130;-117.188;2023-04-01T05:05:38;10.02;;;2.75;;
37847;SDS011;23688;33.130;-117.188;2023-04-01T05:08:05;7.45;;;2.60;;
37847;SDS011;23688;33.130;-117.188;2023-04-01T05:10:31;12.38;;;2.90;;
37847;SDS011;23688;33.130;-117.188;2023-04-01T05:12:58;7.72;;;2.70;;
37847;SDS011;23688;33.130;-117.188;2023-04-01T05:15:28;14.55;;;3.20;;
37847;SDS011;23688;33.130;-117.188;2023-04-01T05:17:56;8.73;;;2.70;;
37847;SDS011;23688;33.130;-117.188;2023-04-01T05:20:23;10.13;;;3.15;;
37847;SDS011;23688;33.130;-117.188;2023-04-01T05:22:49;14.60;;;2.95;;
37847;SDS011;23688;33.130;-117.188;2023-04-01T05:25:22;7.72;;;2.78;;
37847;SDS011;23688;33.130;-117.188;2023-04-01T05:27:49;9.32;;;2.63;;
37847;SDS011;23688;33.130;-117.188;2023-04-01T05:30:24;9.43;;;2.53;;
37847;SDS011;23688;33.130;-117.188;2023-04-01T05:32:53;12.80;;;2.70;;
37847;SDS011;23688;33.130;-117.188;2023-04-01T05:35:19;6.32;;;2.95;;
37847;SDS011;23688;33.130;-117.188;2023-04-01T05:37:46;10.43;;;2.55;;
37847;SDS011;23688;33.130;-117.188;2023-04-01T05:40:14;10.18;;;3.22;;
37847;SDS011;23688;33.130;-117.188;2023-04-01T05:42:41;6.22;;;2.13;;
37847;SDS011;23688;33.130;-117.188;2023-04-01T05:45:07;7.43;;;3.30;;
37847;SDS011;23688;33.130;-117.188;2023-04-01T05:47:34;8.32;;;2.53;;
37847;SDS011;23688;33.130;-117.188;2023-04-01T05:50:00;7.57;;;4.03;;
37847;SDS011;23688;33.130;-117.188;2023-04-01T05:52:27;6.50;;;2.10;;
37847;SDS011;23688;33.130;-117.188;2023-04-01T05:54:53;15.93;;;3.05;;
37847;SDS011;23688;33.130;-117.188;2023-04-01T05:57:21;8.27;;;2.17;;
37847;SDS011;23688;33.130;-117.188;2023-04-01T05:59:48;9.45;;;3.10;;
37847;SDS011;23688;33.130;-117.188;2023-04-01T06:02:16;5.15;;;2.65;;
37847;SDS011;23688;33.130;-117.188;2023-04-01T06:04:43;7.60;;;3.35;;
37847;SDS011;23688;33.130;-117.188;2023-04-01T06:07:11;8.88;;;3.78;;
37847;SDS011;23688;33.130;-117.188;2023-04-01T06:09:40;8.45;;;3.15;;
37847;SDS011;23688;33.130;-117.188;2023-04-01T06:15:06;13.50;;;3.45;;
37847;SDS011;23688;33.130;-117.188;2023-04-01T06:20:57;9.13;;;3.55;;
37847;SDS011;23688;33.130;-117.188;2023-04-01T06:46:52;8.80;;;3.65;;
37847;SDS011;23688;33.130;-117.188;2023-04-01T06:54:34;8.43;;;3.03;;
37847;SDS011;23688;33.130;-117.188;2023-04-01T06:57:18;9.05;;;3.38;;
37847;SDS011;23688;33.130;-117.188;2023-04-01T06:59:58;7.60;;;2.58;;
37847;SDS011;23688;33.130;-117.188;2023-04-01T07:02:37;7.32;;;2.40;;
37847;SDS011;23688;33.130;-117.188;2023-04-01T07:05:11;6.97;;;2.55;;
37847;SDS011;23688;33.130;-117.188;2023-04-01T07:07:50;10.52;;;2.67;;
37847;SDS011;23688;33.130;-117.188;2023-04-01T07:10:25;4.40;;;2.25;;
37847;SDS011;23688;33.130;-117.188;2023-04-01T07:12:58;6.75;;;2.58;;
37847;SDS011;23688;33.130;-117.188;2023-04-01T07:15:43;10.73;;;2.38;;
37847;SDS011;23688;33.130;-117.188;2023-04-01T07:18:16;4.53;;;2.15;;
37847;SDS011;23688;33.130;-117.188;2023-04-01T07:20:49;9.07;;;2.42;;
37847;SDS011;23688;33.130;-117.188;2023-04-01T07:23:22;7.07;;;3.17;;
37847;SDS011;23688;33.130;-117.188;2023-04-01T07:26:17;8.05;;;3.50;;
37847;SDS011;23688;33.130;-117.188;2023-04-01T07:28:44;5.10;;;2.58;;
37847;SDS011;23688;33.130;-117.188;2023-04-01T07:31:15;9.75;;;2.80;;
37847;SDS011;23688;33.130;-117.188;2023-04-01T07:34:15;5.20;;;2.80;;
37847;SDS011;23688;33.130;-117.188;2023-04-01T07:48:08;9.20;;;3.33;;
37847;SDS011;23688;33.130;-117.188;2023-04-01T07:51:19;11.57;;;3.45;;
37847;SDS011;23688;33.130;-117.188;2023-04-01T07:53:46;9.52;;;2.92;;
37847;SDS011;23688;33.130;-117.188;2023-04-01T07:59:24;8.35;;;2.53;;
37847;SDS011;23688;33.130;-117.188;2023-04-01T08:02:17;9.68;;;2.67;;
37847;SDS011;23688;33.130;-117.188;2023-04-01T08:08:35;10.10;;;3.50;;
37847;SDS011;23688;33.130;-117.188;2023-04-01T08:10:54;8.20;;;3.88;;
37847;SDS011;23688;33.130;-117.188;2023-04-01T08:13:44;9.45;;;4.00;;
37847;SDS011;23688;33.130;-117.188;2023-04-01T08:19:36;12.73;;;6.20;;
37847;SDS011;23688;33.130;-117.188;2023-04-01T08:22:40;13.10;;;5.25;;
37847;SDS011;23688;33.130;-117.188;2023-04-01T08:25:17;10.90;;;5.95;;
37847;SDS011;23688;33.130;-117.188;2023-04-01T08:27:53;9.50;;;4.68;;
37847;SDS011;23688;33.130;-117.188;2023-04-01T08:30:38;9.27;;;4.60;;
37847;SDS011;23688;33.130;-117.188;2023-04-01T08:33:21;10.65;;;4.40;;
37847;SDS011;23688;33.130;-117.188;2023-04-01T08:46:56;13.10;;;4.25;;
37847;SDS011;23688;33.130;-117.188;2023-04-01T08:52:33;15.48;;;4.43;;
37847;SDS011;23688;33.130;-117.188;2023-04-01T08:55:22;12.90;;;4.35;;
37847;SDS011;23688;33.130;-117.188;2023-04-01T09:01:26;9.57;;;4.85;;
37847;SDS011;23688;33.130;-117.188;2023-04-01T09:10:20;11.25;;;5.50;;
37847;SDS011;23688;33.130;-117.188;2023-04-01T09:21:24;11.18;;;4.65;;
37847;SDS011;23688;33.130;-117.188;2023-04-01T09:24:17;8.05;;;4.57;;
37847;SDS011;23688;33.130;-117.188;2023-04-01T09:26:53;13.18;;;5.50;;
37847;SDS011;23688;33.130;-117.188;2023-04-01T09:32:32;10.37;;;4.33;;
37847;SDS011;23688;33.130;-117.188;2023-04-01T09:35:25;8.98;;;4.38;;
37847;SDS011;23688;33.130;-117.188;2023-04-01T09:41:05;9.25;;;4.88;;
37847;SDS011;23688;33.130;-117.188;2023-04-01T10:03:36;11.63;;;5.80;;
37847;SDS011;23688;33.130;-117.188;2023-04-01T10:36:00;13.32;;;6.43;;
37847;SDS011;23688;33.130;-117.188;2023-04-01T10:41:24;10.63;;;6.13;;
37847;SDS011;23688;33.130;-117.188;2023-04-01T10:49:41;14.10;;;5.43;;
37847;SDS011;23688;33.130;-117.188;2023-04-01T11:00:49;12.73;;;6.88;;
37847;SDS011;23688;33.130;-117.188;2023-04-01T11:15:26;11.32;;;5.72;;
37847;SDS011;23688;33.130;-117.188;2023-04-01T11:24:30;11.15;;;5.05;;
37847;SDS011;23688;33.130;-117.188;2023-04-01T11:35:22;12.40;;;6.85;;
37847;SDS011;23688;33.130;-117.188;2023-04-01T11:43:37;13.85;;;6.28;;
37847;SDS011;23688;33.130;-117.188;2023-04-01T11:48:51;10.63;;;5.90;;
37847;SDS011;23688;33.130;-117.188;2023-04-01T11:51:44;13.40;;;6.88;;
37847;SDS011;23688;33.130;-117.188;2023-04-01T11:54:57;16.23;;;5.97;;
37847;SDS011;23688;33.130;-117.188;2023-04-01T11:57:43;9.43;;;6.07;;
37847;SDS011;23688;33.130;-117.188;2023-04-01T12:05:46;13.20;;;5.90;;
37847;SDS011;23688;33.130;-117.188;2023-04-01T12:14:05;11.77;;;5.60;;
37847;SDS011;23688;33.130;-117.188;2023-04-01T12:16:46;7.07;;;4.97;;
37847;SDS011;23688;33.130;-117.188;2023-04-01T12:21:57;10.10;;;5.90;;
37847;SDS011;23688;33.130;-117.188;2023-04-01T12:24:44;10.57;;;5.78;;
37847;SDS011;23688;33.130;-117.188;2023-04-01T12:27:20;10.65;;;5.20;;
37847;SDS011;23688;33.130;-117.188;2023-04-01T12:41:27;8.95;;;5.03;;
37847;SDS011;23688;33.130;-117.188;2023-04-01T12:44:03;8.30;;;4.70;;
37847;SDS011;23688;33.130;-117.188;2023-04-01T12:55:18;13.15;;;4.85;;
37847;SDS011;23688;33.130;-117.188;2023-04-01T13:00:38;13.07;;;5.47;;
37847;SDS011;23688;33.130;-117.188;2023-04-01T13:08:48;16.45;;;4.30;;
37847;SDS011;23688;33.130;-117.188;2023-04-01T13:11:55;14.10;;;4.32;;
37847;SDS011;23688;33.130;-117.188;2023-04-01T13:14:40;8.82;;;4.00;;
37847;SDS011;23688;33.130;-117.188;2023-04-01T13:23:33;13.63;;;4.90;;
37847;SDS011;23688;33.130;-117.188;2023-04-01T13:31:47;8.90;;;4.35;;
37847;SDS011;23688;33.130;-117.188;2023-04-01T13:40:49;7.60;;;4.20;;
37847;SDS011;23688;33.130;-117.188;2023-04-01T13:43:29;11.98;;;3.90;;
37847;SDS011;23688;33.130;-117.188;2023-04-01T13:46:12;9.23;;;4.53;;
37847;SDS011;23688;33.130;-117.188;2023-04-01T13:51:54;10.32;;;4.30;;
37847;SDS011;23688;33.130;-117.188;2023-04-01T13:54:25;7.93;;;4.13;;
37847;SDS011;23688;33.130;-117.188;2023-04-01T14:02:42;11.38;;;4.40;;
37847;SDS011;23688;33.130;-117.188;2023-04-01T14:05:39;8.98;;;3.80;;
37847;SDS011;23688;33.130;-117.188;2023-04-01T14:20:22;7.88;;;3.97;;
37847;SDS011;23688;33.130;-117.188;2023-04-01T14:22:56;7.55;;;3.75;;
37847;SDS011;23688;33.130;-117.188;2023-04-01T14:28:37;8.48;;;3.78;;
37847;SDS011;23688;33.130;-117.188;2023-04-01T14:45:47;9.65;;;3.42;;
37847;SDS011;23688;33.130;-117.188;2023-04-01T14:51:29;7.60;;;3.40;;
37847;SDS011;23688;33.130;-117.188;2023-04-01T14:56:35;6.78;;;3.20;;
37847;SDS011;23688;33.130;-117.188;2023-04-01T14:59:26;7.85;;;3.95;;
37847;SDS011;23688;33.130;-117.188;2023-04-01T15:02:10;6.03;;;2.95;;
37847;SDS011;23688;33.130;-117.188;2023-04-01T15:08:00;7.18;;;3.05;;
37847;SDS011;23688;33.130;-117.188;2023-04-01T15:15:56;9.38;;;4.22;;
37847;SDS011;23688;33.130;-117.188;2023-04-01T15:24:24;8.10;;;3.25;;
37847;SDS011;23688;33.130;-117.188;2023-04-01T15:36:01;7.63;;;3.35;;
37847;SDS011;23688;33.130;-117.188;2023-04-01T15:38:51;11.68;;;3.38;;
37847;SDS011;23688;33.130;-117.188;2023-04-01T15:44:01;11.30;;;3.20;;
37847;SDS011;23688;33.130;-117.188;2023-04-01T15:46:47;7.75;;;2.70;;
37847;SDS011;23688;33.130;-117.188;2023-04-01T15:49:31;7.68;;;2.60;;
37847;SDS011;23688;33.130;-117.188;2023-04-01T15:52:35;4.90;;;2.63;;
37847;SDS011;23688;33.130;-117.188;2023-04-01T16:14:39;5.28;;;1.98;;
37847;SDS011;23688;33.130;-117.188;2023-04-01T16:20:20;3.83;;;1.58;;
37847;SDS011;23688;33.130;-117.188;2023-04-01T16:26:33;6.32;;;1.90;;
37847;SDS011;23688;33.130;-117.188;2023-04-01T16:29:22;4.88;;;1.95;;
37847;SDS011;23688;33.130;-117.188;2023-04-01T16:31:53;10.52;;;2.30;;
37847;SDS011;23688;33.130;-117.188;2023-04-01T16:37:59;6.03;;;1.88;;
37847;SDS011;23688;33.130;-117.188;2023-04-01T16:45:53;6.03;;;2.22;;
37847;SDS011;23688;33.130;-117.188;2023-04-01T16:48:28;7.07;;;2.42;;
37847;SDS011;23688;33.130;-117.188;2023-04-01T16:51:19;4.53;;;1.83;;
37847;SDS011;23688;33.130;-117.188;2023-04-01T16:53:49;4.30;;;1.95;;
37847;SDS011;23688;33.130;-117.188;2023-04-01T16:56:28;6.35;;;1.92;;
37847;SDS011;23688;33.130;-117.188;2023-04-01T17:04:27;7.30;;;1.65;;
37847;SDS011;23688;33.130;-117.188;2023-04-01T17:09:57;11.15;;;1.80;;
37847;SDS011;23688;33.130;-117.188;2023-04-01T17:12:52;6.57;;;1.88;;
37847;SDS011;23688;33.130;-117.188;2023-04-01T17:15:51;7.10;;;1.90;;
37847;SDS011;23688;33.130;-117.188;2023-04-01T17:21:38;4.53;;;1.95;;
37847;SDS011;23688;33.130;-117.188;2023-04-01T17:49:39;9.30;;;2.30;;
37847;SDS011;23688;33.130;-117.188;2023-04-01T18:14:22;5.30;;;2.03;;
37847;SDS011;23688;33.130;-117.188;2023-04-01T18:19:56;5.13;;;1.98;;
37847;SDS011;23688;33.130;-117.188;2023-04-01T18:22:48;11.05;;;2.42;;
37847;SDS011;23688;33.130;-117.188;2023-04-01T18:25:44;5.07;;;2.83;;
37847;SDS011;23688;33.130;-117.188;2023-04-01T18:30:43;6.75;;;2.88;;
37847;SDS011;23688;33.130;-117.188;2023-04-01T18:39:22;4.03;;;2.45;;
37847;SDS011;23688;33.130;-117.188;2023-04-01T18:45:26;8.25;;;3.47;;
37847;SDS011;23688;33.130;-117.188;2023-04-01T18:52:59;12.27;;;3.95;;
37847;SDS011;23688;33.130;-117.188;2023-04-01T18:55:49;13.75;;;4.55;;
37847;SDS011;23688;33.130;-117.188;2023-04-01T18:58:22;9.93;;;4.85;;
37847;SDS011;23688;33.130;-117.188;2023-04-01T19:01:22;12.55;;;5.30;;
37847;SDS011;23688;33.130;-117.188;2023-04-01T19:10:14;10.18;;;5.13;;
37847;SDS011;23688;33.130;-117.188;2023-04-01T19:12:47;13.98;;;5.38;;
37847;SDS011;23688;33.130;-117.188;2023-04-01T19:15:22;10.02;;;6.10;;
37847;SDS011;23688;33.130;-117.188;2023-04-01T19:20:59;13.18;;;5.78;;
37847;SDS011;23688;33.130;-117.188;2023-04-01T19:23:40;15.82;;;7.10;;
37847;SDS011;23688;33.130;-117.188;2023-04-01T19:26:13;12.98;;;5.85;;
37847;SDS011;23688;33.130;-117.188;2023-04-01T19:31:52;12.38;;;6.38;;
37847;SDS011;23688;33.130;-117.188;2023-04-01T19:34:42;11.73;;;5.93;;
37847;SDS011;23688;33.130;-117.188;2023-04-01T19:37:39;14.63;;;5.65;;
37847;SDS011;23688;33.130;-117.188;2023-04-01T19:40:17;13.10;;;5.00;;
37847;SDS011;23688;33.130;-117.188;2023-04-01T19:46:10;12.48;;;5.53;;
37847;SDS011;23688;33.130;-117.188;2023-04-01T20:08:19;12.20;;;5.28;;
37847;SDS011;23688;33.130;-117.188;2023-04-01T20:14:04;13.55;;;4.82;;
37847;SDS011;23688;33.130;-117.188;2023-04-01T20:25:38;13.05;;;4.80;;
37847;SDS011;23688;33.130;-117.188;2023-04-01T20:28:09;8.13;;;4.50;;
37847;SDS011;23688;33.130;-117.188;2023-04-01T20:50:15;15.45;;;4.55;;
37847;SDS011;23688;33.130;-117.188;2023-04-01T21:01:46;5.28;;;2.20;;
37847;SDS011;23688;33.130;-117.188;2023-04-01T21:15:21;7.63;;;2.58;;
37847;SDS011;23688;33.130;-117.188;2023-04-01T21:18:00;5.88;;;2.65;;
37847;SDS011;23688;33.130;-117.188;2023-04-01T21:23:29;5.78;;;2.63;;
37847;SDS011;23688;33.130;-117.188;2023-04-01T21:29:08;4.97;;;2.40;;
37847;SDS011;23688;33.130;-117.188;2023-04-01T21:51:19;11.77;;;3.30;;
37847;SDS011;23688;33.130;-117.188;2023-04-01T21:53:56;9.82;;;2.72;;
37847;SDS011;23688;33.130;-117.188;2023-04-01T22:09:39;6.90;;;2.10;;
37847;SDS011;23688;33.130;-117.188;2023-04-01T22:15:44;7.95;;;2.58;;
37847;SDS011;23688;33.130;-117.188;2023-04-01T22:18:07;5.82;;;1.85;;
37847;SDS011;23688;33.130;-117.188;2023-04-01T22:20:50;9.07;;;1.80;;
37847;SDS011;23688;33.130;-117.188;2023-04-01T22:23:34;7.63;;;1.50;;
37847;SDS011;23688;33.130;-117.188;2023-04-01T22:31:53;5.20;;;1.70;;
37847;SDS011;23688;33.130;-117.188;2023-04-01T22:34:33;11.63;;;2.28;;
37847;SDS011;23688;33.130;-117.188;2023-04-01T22:39:56;7.70;;;1.77;;
37847;SDS011;23688;33.130;-117.188;2023-04-01T22:42:46;8.10;;;2.03;;
37847;SDS011;23688;33.130;-117.188;2023-04-01T22:48:09;5.85;;;1.67;;
37847;SDS011;23688;33.130;-117.188;2023-04-01T22:51:11;6.07;;;1.33;;
37847;SDS011;23688;33.130;-117.188;2023-04-01T22:53:43;4.85;;;1.83;;
37847;SDS011;23688;33.130;-117.188;2023-04-01T22:56:26;4.75;;;1.70;;
37847;SDS011;23688;33.130;-117.188;2023-04-01T22:59:02;6.03;;;1.70;;
37847;SDS011;23688;33.130;-117.188;2023-04-01T23:01:49;6.45;;;1.33;;
37847;SDS011;23688;33.130;-117.188;2023-04-01T23:04:23;5.32;;;1.23;;
37847;SDS011;23688;33.130;-117.188;2023-04-01T23:06:57;7.15;;;2.35;;
37847;SDS011;23688;33.130;-117.188;2023-04-01T23:09:31;5.75;;;1.42;;
37847;SDS011;23688;33.130;-117.188;2023-04-01T23:12:04;3.03;;;1.23;;
37847;SDS011;23688;33.130;-117.188;2023-04-01T23:14:41;7.18;;;1.55;;
37847;SDS011;23688;33.130;-117.188;2023-04-01T23:20:03;4.80;;;1.70;;
37847;SDS011;23688;33.130;-117.188;2023-04-01T23:22:52;6.20;;;1.90;;
37847;SDS011;23688;33.130;-117.188;2023-04-01T23:28:19;2.35;;;1.48;;
37847;SDS011;23688;33.130;-117.188;2023-04-01T23:34:04;5.85;;;1.50;;
37847;SDS011;23688;33.130;-117.188;2023-04-01T23:36:41;4.50;;;1.50;;
37847;SDS011;23688;33.130;-117.188;2023-04-01T23:39:30;5.22;;;2.13;;
37847;SDS011;23688;33.130;-117.188;2023-04-01T23:44:53;6.38;;;1.80;;
37847;SDS011;23688;33.130;-117.188;2023-04-01T23:47:31;6.20;;;1.55;;
37847;SDS011;23688;33.130;-117.188;2023-04-01T23:50:04;3.17;;;1.20;;
37847;SDS011;23688;33.130;-117.188;2023-04-01T23:52:42;3.92;;;1.08;;
37847;SDS011;23688;33.130;-117.188;2023-04-01T23:55:26;4.13;;;1.55;;
37847;SDS011;23688;33.130;-117.188;2023-04-01T23:58:12;5.40;;;1.38;;
